createdAt,value
2022-11-28T00:01:22.853Z,100951.56
2022-11-28T00:03:49.615Z,100943.94
2022-11-28T00:06:16.659Z,100957.81
2022-11-28T00:08:43.904Z,100946.28
2022-11-28T00:11:13.912Z,100945.75
2022-11-28T00:13:40.834Z,100957.13
2022-11-28T00:16:09.303Z,100951.19
2022-11-28T00:18:36.107Z,100952.00
2022-11-28T00:21:05.966Z,100955.66
2022-11-28T00:23:33.249Z,100946.91
2022-11-28T00:26:02.850Z,100962.41
2022-11-28T00:28:29.437Z,100961.59
2022-11-28T00:30:56.015Z,100959.78
2022-11-28T00:33:22.989Z,100956.13
2022-11-28T00:35:49.664Z,100951.03
2022-11-28T00:38:16.524Z,100963.22
2022-11-28T00:40:43.091Z,100955.47
2022-11-28T00:43:11.630Z,100950.19
2022-11-28T00:45:38.190Z,100954.81
2022-11-28T00:48:05.259Z,100948.75
2022-11-28T00:50:31.763Z,100954.63
2022-11-28T00:53:00.596Z,100948.25
2022-11-28T00:55:27.462Z,100945.78
2022-11-28T00:57:55.741Z,100940.38
2022-11-28T01:00:23.922Z,100934.44
2022-11-28T01:02:50.824Z,100935.41
2022-11-28T01:05:17.576Z,100924.41
2022-11-28T01:07:44.127Z,100928.03
2022-11-28T01:10:11.825Z,100930.00
2022-11-28T01:12:38.740Z,100927.22
2022-11-28T01:15:08.317Z,100952.81
2022-11-28T01:17:35.716Z,100956.75
2022-11-28T01:20:08.112Z,101021.19
2022-11-28T01:22:34.698Z,101001.09
2022-11-28T01:25:01.217Z,100990.72
2022-11-28T01:27:27.721Z,100947.69
2022-11-28T01:29:54.249Z,100939.97
2022-11-28T01:32:20.746Z,100930.59
2022-11-28T01:34:47.347Z,100934.84
2022-11-28T01:37:13.865Z,100939.13
2022-11-28T01:39:40.561Z,100940.31
2022-11-28T01:42:07.114Z,100935.03
2022-11-28T01:44:33.545Z,100942.13
2022-11-28T01:47:00.171Z,100940.47
2022-11-28T01:49:31.617Z,100947.91
2022-11-28T01:52:05.680Z,100936.69
2022-11-28T01:54:35.126Z,100931.94
2022-11-28T01:57:04.768Z,100934.41
2022-11-28T01:59:37.107Z,100938.03
2022-11-28T02:02:09.754Z,100939.19
2022-11-28T02:04:37.447Z,100946.13
2022-11-28T02:07:04.157Z,100939.00
2022-11-28T02:09:30.724Z,100921.56
2022-11-28T02:12:26.307Z,100929.31
2022-11-28T02:14:58.891Z,100931.94
2022-11-28T02:18:18.589Z,100912.00
2022-11-28T02:21:14.155Z,100918.09
2022-11-28T02:24:05.572Z,100933.91
2022-11-28T02:26:34.938Z,100938.53
2022-11-28T02:29:25.730Z,100948.91
2022-11-28T02:32:25.077Z,100939.34
2022-11-28T02:35:03.667Z,100935.88
2022-11-28T02:37:41.667Z,100931.63
2022-11-28T02:40:23.138Z,100935.09
2022-11-28T02:43:20.476Z,100932.63
2022-11-28T02:46:22.893Z,100938.53
2022-11-28T02:48:55.545Z,100941.16
2022-11-28T02:51:33.423Z,100930.78
2022-11-28T02:54:03.694Z,100938.34
2022-11-28T02:56:30.480Z,100951.69
2022-11-28T02:58:57.153Z,100959.59
2022-11-28T03:01:31.433Z,100955.16
2022-11-28T03:04:12.488Z,100939.19
2022-11-28T03:07:04.941Z,100948.91
2022-11-28T03:10:12.704Z,100943.47
2022-11-28T03:13:09.736Z,100953.38
2022-11-28T03:15:50.346Z,100944.63
2022-11-28T03:18:34.456Z,100933.25
2022-11-28T03:21:12.844Z,100928.81
2022-11-28T03:23:52.187Z,100927.00
2022-11-28T03:26:37.094Z,100927.00
2022-11-28T03:29:13.584Z,100934.91
2022-11-28T03:31:45.139Z,100924.72
2022-11-28T03:34:17.537Z,100933.41
2022-11-28T03:36:55.147Z,100930.63
2022-11-28T03:39:29.208Z,100932.28
2022-11-28T03:42:08.918Z,100931.63
2022-11-28T03:44:45.639Z,101043.66
2022-11-28T03:47:12.522Z,101056.84
2022-11-28T03:49:48.659Z,101017.28
2022-11-28T03:52:22.178Z,101005.41
2022-11-28T03:54:55.549Z,100986.97
2022-11-28T03:57:34.423Z,100968.50
2022-11-28T04:00:12.973Z,100960.41
2022-11-28T04:02:45.308Z,100946.75
2022-11-28T04:05:41.380Z,100939.66
2022-11-28T04:08:29.730Z,100938.00
2022-11-28T04:11:07.343Z,100953.50
2022-11-28T04:13:45.825Z,100954.16
2022-11-28T04:16:34.172Z,100954.94
2022-11-28T04:19:18.886Z,100952.31
2022-11-28T04:21:55.402Z,100957.59
2022-11-28T04:24:28.533Z,100956.78
2022-11-28T04:27:00.527Z,100955.59
2022-11-28T04:29:31.973Z,100950.34
2022-11-28T04:32:01.231Z,100948.88
2022-11-28T04:34:30.776Z,100970.13
2022-11-28T04:36:59.430Z,100973.59
2022-11-28T04:39:27.574Z,100964.66
2022-11-28T04:41:56.517Z,100975.88
2022-11-28T04:44:40.108Z,100962.88
2022-11-28T04:47:07.579Z,100969.94
2022-11-28T04:49:34.225Z,100973.25
2022-11-28T04:52:29.582Z,100964.97
2022-11-28T04:55:02.238Z,100966.63
2022-11-28T04:57:32.805Z,100968.47
2022-11-28T05:00:02.769Z,100969.59
2022-11-28T05:02:30.195Z,100977.00
2022-11-28T05:04:56.840Z,100977.00
2022-11-28T05:07:24.901Z,100962.84
2022-11-28T05:09:51.766Z,100970.56
2022-11-28T05:12:18.511Z,100968.28
2022-11-28T05:14:45.126Z,100966.13
2022-11-28T05:17:13.620Z,100969.56
2022-11-28T05:19:40.209Z,100974.34
2022-11-28T05:22:06.826Z,100976.81
2022-11-28T05:24:33.319Z,100974.19
2022-11-28T05:26:59.859Z,100976.47
2022-11-28T05:29:26.387Z,100976.31
2022-11-28T05:31:52.988Z,100976.47
2022-11-28T05:34:19.638Z,100983.69
2022-11-28T05:36:46.168Z,100980.41
2022-11-28T05:39:12.700Z,100990.47
2022-11-28T05:41:39.247Z,100992.94
2022-11-28T05:44:05.867Z,100989.47
2022-11-28T05:46:32.423Z,100993.59
2022-11-28T05:48:59.305Z,100991.75
2022-11-28T05:51:25.811Z,100989.59
2022-11-28T05:53:52.331Z,100994.69
2022-11-28T05:56:22.931Z,100988.78
2022-11-28T05:58:49.744Z,100994.88
2022-11-28T06:01:25.582Z,100990.59
2022-11-28T06:03:58.310Z,100990.78
2022-11-28T06:06:26.451Z,100990.59
2022-11-28T06:08:53.112Z,100993.25
2022-11-28T06:11:22.241Z,100995.72
2022-11-28T06:13:50.128Z,101001.16
2022-11-28T06:16:19.426Z,101002.78
2022-11-28T06:18:46.371Z,101000.50
2022-11-28T06:21:14.723Z,100999.50
2022-11-28T06:23:41.561Z,100999.97
2022-11-28T06:26:10.837Z,100992.91
2022-11-28T06:28:37.383Z,100994.06
2022-11-28T06:31:04.103Z,100997.34
2022-11-28T06:33:30.653Z,101000.63
2022-11-28T06:36:04.152Z,101009.06
2022-11-28T06:38:31.553Z,101003.63
2022-11-28T06:40:59.356Z,100979.34
2022-11-28T06:43:26.038Z,100999.53
2022-11-28T06:45:52.615Z,100999.53
2022-11-28T06:48:20.069Z,100995.03
2022-11-28T06:50:47.564Z,100995.88
2022-11-28T06:53:14.626Z,100996.38
2022-11-28T06:55:41.457Z,100997.81
2022-11-28T06:58:08.021Z,100994.25
2022-11-28T07:00:35.505Z,100992.41
2022-11-28T07:03:02.263Z,100996.72
2022-11-28T07:05:28.826Z,100986.94
2022-11-28T07:07:55.363Z,100995.34
2022-11-28T07:10:23.199Z,100998.66
2022-11-28T07:12:59.368Z,101003.59
2022-11-28T07:15:29.087Z,101007.72
2022-11-28T07:17:55.657Z,101018.09
2022-11-28T07:20:22.194Z,101017.91
2022-11-28T07:22:48.868Z,101023.03
2022-11-28T07:25:16.069Z,101016.75
2022-11-28T07:27:42.920Z,101012.47
2022-11-28T07:30:10.451Z,101018.22
2022-11-28T07:32:40.723Z,101018.22
2022-11-28T07:35:09.095Z,101018.22
2022-11-28T07:37:36.291Z,101012.94
2022-11-28T07:40:04.629Z,101013.78
2022-11-28T07:42:31.185Z,101014.41
2022-11-28T07:44:57.770Z,101018.06
2022-11-28T07:47:24.677Z,101024.97
2022-11-28T07:49:51.203Z,101038.16
2022-11-28T07:52:17.714Z,101043.13
2022-11-28T07:54:44.299Z,101043.94
2022-11-28T07:57:12.706Z,101051.53
2022-11-28T07:59:40.020Z,101049.69
2022-11-28T08:02:07.305Z,101043.25
2022-11-28T08:04:34.030Z,101043.75
2022-11-28T08:07:00.914Z,101046.22
2022-11-28T08:09:27.731Z,101045.84
2022-11-28T08:11:54.330Z,101038.59
2022-11-28T08:14:20.899Z,101048.63
2022-11-28T08:16:47.546Z,101046.81
2022-11-28T08:19:14.201Z,101055.03
2022-11-28T08:21:40.797Z,101046.13
2022-11-28T08:24:08.237Z,101050.53
2022-11-28T08:26:35.609Z,101046.38
2022-11-28T08:29:03.665Z,101045.38
2022-11-28T08:31:36.577Z,101039.75
2022-11-28T08:34:06.555Z,101043.47
2022-11-28T08:36:33.655Z,101047.56
2022-11-28T08:41:47.865Z,101059.97
2022-11-28T08:44:14.386Z,101056.97
2022-11-28T08:46:41.111Z,101053.41
2022-11-28T08:49:07.849Z,101059.66
2022-11-28T08:51:34.624Z,101062.75
2022-11-28T08:54:01.215Z,101055.25
2022-11-28T08:56:28.411Z,101058.78
2022-11-28T08:58:55.611Z,101059.72
2022-11-28T09:01:26.791Z,101069.66
2022-11-28T09:03:55.467Z,101057.66
2022-11-28T09:06:23.129Z,101060.47
2022-11-28T09:08:50.803Z,101051.59
2022-11-28T09:11:20.062Z,101058.91
2022-11-28T09:13:46.911Z,101058.06
2022-11-28T09:16:14.385Z,101060.72
2022-11-28T09:18:41.082Z,101055.41
2022-11-28T09:21:10.757Z,101055.59
2022-11-28T09:23:39.083Z,101062.69
2022-11-28T09:26:17.813Z,101061.69
2022-11-28T09:28:45.002Z,101064.81
2022-11-28T09:31:12.620Z,101059.69
2022-11-28T09:33:39.275Z,101069.47
2022-11-28T09:36:19.761Z,101070.91
2022-11-28T09:38:46.697Z,101071.09
2022-11-28T09:41:29.148Z,101078.19
2022-11-28T09:44:20.944Z,101078.19
2022-11-28T09:46:49.879Z,101082.81
2022-11-28T09:49:24.142Z,101086.28
2022-11-28T09:52:01.919Z,101080.53
2022-11-28T09:54:44.685Z,101084.66
2022-11-28T09:57:18.304Z,101086.81
2022-11-28T09:59:46.320Z,101088.63
2022-11-28T10:02:20.926Z,101089.81
2022-11-28T10:05:01.665Z,101097.09
2022-11-28T10:07:54.913Z,101104.00
2022-11-28T10:10:21.947Z,101097.44
2022-11-28T10:13:11.663Z,101095.47
2022-11-28T10:15:41.066Z,101092.34
2022-11-28T10:18:22.712Z,101097.97
2022-11-28T10:20:55.075Z,101096.69
2022-11-28T10:23:44.324Z,101103.78
2022-11-28T10:26:26.184Z,101086.78
2022-11-28T10:28:55.606Z,101088.09
2022-11-28T10:31:42.859Z,101096.88
2022-11-28T10:34:18.463Z,101083.81
2022-11-28T10:36:57.348Z,101101.28
2022-11-28T10:39:25.800Z,101088.56
2022-11-28T10:42:14.189Z,101094.78
2022-11-28T10:44:43.362Z,101111.88
2022-11-28T10:47:32.910Z,101105.75
2022-11-28T10:50:21.925Z,101103.72
2022-11-28T10:53:16.809Z,101097.03
2022-11-28T10:56:11.674Z,101095.50
2022-11-28T10:59:09.791Z,101109.66
2022-11-28T11:01:39.266Z,101112.78
2022-11-28T11:04:06.389Z,101103.50
2022-11-28T11:06:41.821Z,101110.91
2022-11-28T11:09:14.744Z,101106.56
2022-11-28T11:11:53.071Z,101112.72
2022-11-28T11:14:34.934Z,101115.84
2022-11-28T11:17:01.779Z,101119.06
2022-11-28T11:19:36.743Z,101115.06
2022-11-28T11:22:26.989Z,101105.25
2022-11-28T11:25:20.473Z,101108.81
2022-11-28T11:28:03.379Z,101121.59
2022-11-28T11:30:31.323Z,101109.44
2022-11-28T11:33:00.551Z,101100.13
2022-11-28T11:35:35.895Z,101090.00
2022-11-28T11:38:20.762Z,101097.59
2022-11-28T11:40:51.361Z,101096.13
2022-11-28T11:43:26.861Z,101088.56
2022-11-28T11:46:16.294Z,101097.50
2022-11-28T11:48:48.183Z,101105.03
2022-11-28T11:51:32.653Z,101101.34
2022-11-28T11:54:17.005Z,101100.59
2022-11-28T11:56:47.315Z,101108.41
2022-11-28T11:59:26.724Z,101113.06
2022-11-28T12:01:59.279Z,101120.38
2022-11-28T12:04:46.485Z,101121.63
2022-11-28T12:07:26.412Z,101127.63
2022-11-28T12:09:55.685Z,101128.38
2022-11-28T12:12:29.279Z,101131.97
2022-11-28T12:14:56.372Z,101122.53
2022-11-28T12:17:48.895Z,101112.78
2022-11-28T12:20:37.481Z,101120.16
2022-11-28T12:23:27.502Z,101120.91
2022-11-28T12:26:11.366Z,101121.28
2022-11-28T12:28:47.552Z,101127.25
2022-11-28T12:31:39.349Z,101132.72
2022-11-28T12:34:33.013Z,101119.88
2022-11-28T12:37:42.113Z,101116.75
2022-11-28T12:40:38.254Z,101121.38
2022-11-28T12:43:38.985Z,101111.53
2022-11-28T12:46:23.960Z,101103.59
2022-11-28T12:49:17.549Z,101096.50
2022-11-28T12:52:14.305Z,101098.31
2022-11-28T12:54:57.399Z,101096.97
2022-11-28T12:57:30.637Z,101092.28
2022-11-28T13:00:09.283Z,101101.16
2022-11-28T13:03:10.989Z,101092.25
2022-11-28T13:06:19.103Z,101086.38
2022-11-28T13:09:03.412Z,101088.66
2022-11-28T13:11:49.726Z,101089.78
2022-11-28T13:14:36.360Z,101089.03
2022-11-28T13:17:25.879Z,101086.88
2022-11-28T13:20:00.546Z,101096.19
2022-11-28T13:23:00.350Z,101101.03
2022-11-28T13:25:33.092Z,101112.31
2022-11-28T13:28:08.449Z,101127.34
2022-11-28T13:30:45.799Z,101137.22
2022-11-28T13:33:40.420Z,101128.78
2022-11-28T13:38:34.969Z,101122.13
2022-11-28T13:39:18.960Z,101118.31
2022-11-28T13:45:17.146Z,101099.38
2022-11-28T13:47:43.689Z,101107.19
2022-11-28T13:50:25.349Z,101117.44
2022-11-28T13:52:59.454Z,101109.69
2022-11-28T13:55:46.741Z,101112.47
2022-11-28T13:58:35.119Z,101104.03
2022-11-28T14:01:17.829Z,101111.66
2022-11-28T14:03:49.247Z,101104.91
2022-11-28T14:06:22.909Z,101102.63
2022-11-28T14:09:00.786Z,101097.97
2022-11-28T14:12:07.762Z,101107.25
2022-11-28T14:14:52.769Z,101112.81
2022-11-28T14:17:40.247Z,101106.75
2022-11-28T14:20:24.515Z,101110.38
2022-11-28T14:22:57.019Z,101117.81
2022-11-28T14:25:31.677Z,101113.44
2022-11-28T14:28:14.782Z,101122.81
2022-11-28T14:30:44.862Z,101109.13
2022-11-28T14:33:23.464Z,101120.16
2022-11-28T14:35:50.063Z,101120.34
2022-11-28T14:38:32.182Z,101130.56
2022-11-28T14:41:03.243Z,101121.84
2022-11-28T14:43:31.105Z,101122.34
2022-11-28T14:46:22.908Z,101118.59
2022-11-28T14:48:58.871Z,101125.03
2022-11-28T14:51:44.058Z,101121.75
2022-11-28T14:54:43.815Z,101127.22
2022-11-28T14:57:17.719Z,101127.75
2022-11-28T14:59:44.787Z,101119.50
2022-11-28T15:02:11.265Z,101131.59
2022-11-28T15:04:49.396Z,101127.03
2022-11-28T15:07:27.298Z,101133.63
2022-11-28T15:10:07.512Z,101128.53
2022-11-28T15:13:03.792Z,101137.63
2022-11-28T15:15:31.980Z,101124.13
2022-11-28T15:18:02.379Z,101118.22
2022-11-28T15:20:35.463Z,101118.09
2022-11-28T15:23:02.243Z,101124.53
2022-11-28T15:25:35.660Z,101123.22
2022-11-28T15:28:16.205Z,101135.78
2022-11-28T15:30:48.824Z,101134.81
2022-11-28T15:33:15.663Z,101137.97
2022-11-28T15:35:56.951Z,101131.19
2022-11-28T15:38:24.142Z,101135.53
2022-11-28T15:40:52.839Z,101139.00
2022-11-28T15:43:20.067Z,101138.88
2022-11-28T15:45:58.507Z,101141.16
2022-11-28T15:48:27.627Z,101136.25
2022-11-28T15:50:54.625Z,101137.88
2022-11-28T15:53:21.822Z,101147.63
2022-11-28T15:56:07.216Z,101136.41
2022-11-28T15:58:33.909Z,101130.97
2022-11-28T16:01:04.896Z,101138.41
2022-11-28T16:03:41.429Z,101124.03
2022-11-28T16:06:08.486Z,101124.53
2022-11-28T16:08:40.271Z,101133.06
2022-11-28T16:11:10.024Z,101128.25
2022-11-28T16:13:39.773Z,101139.94
2022-11-28T16:16:12.922Z,101143.75
2022-11-28T16:18:45.606Z,101159.59
2022-11-28T16:21:14.001Z,101152.19
2022-11-28T16:23:41.443Z,101164.22
2022-11-28T16:26:22.031Z,101169.00
2022-11-28T16:29:07.064Z,101181.03
2022-11-28T16:31:34.805Z,101178.09
2022-11-28T16:34:02.838Z,101176.94
2022-11-28T16:36:37.431Z,101171.84
2022-11-28T16:39:09.642Z,101171.50
2022-11-28T16:41:37.781Z,101169.03
2022-11-28T16:44:07.562Z,101171.84
2022-11-28T16:46:39.969Z,101173.66
2022-11-28T16:49:24.920Z,101170.38
2022-11-28T16:52:13.575Z,101174.97
2022-11-28T16:54:40.103Z,101172.34
2022-11-28T16:57:16.780Z,101173.97
2022-11-28T16:59:45.202Z,101161.28
2022-11-28T17:02:17.746Z,101166.56
2022-11-28T17:04:45.404Z,101169.34
2022-11-28T17:07:14.665Z,101172.31
2022-11-28T17:09:42.146Z,101175.59
2022-11-28T17:12:22.718Z,101188.00
2022-11-28T17:14:49.300Z,101184.06
2022-11-28T17:17:18.108Z,101189.97
2022-11-28T17:19:45.660Z,101181.56
2022-11-28T17:22:15.803Z,101173.97
2022-11-28T17:24:42.889Z,101182.22
2022-11-28T17:27:12.624Z,101188.31
2022-11-28T17:29:39.333Z,101187.31
2022-11-28T17:32:06.151Z,101188.66
2022-11-28T17:34:34.660Z,101208.41
2022-11-28T17:37:02.067Z,101204.97
2022-11-28T17:39:29.806Z,101196.91
2022-11-28T17:41:57.470Z,101193.44
2022-11-28T17:44:32.177Z,101200.50
2022-11-28T17:47:00.634Z,101190.13
2022-11-28T17:49:27.969Z,101197.53
2022-11-28T17:51:55.980Z,101202.97
2022-11-28T17:54:24.267Z,101206.28
2022-11-28T17:56:52.007Z,101203.47
2022-11-28T17:59:21.310Z,101211.03
2022-11-28T18:01:48.221Z,101204.41
2022-11-28T18:04:14.845Z,101209.69
2022-11-28T18:06:47.859Z,101207.72
2022-11-28T18:09:14.668Z,101207.38
2022-11-28T18:11:42.304Z,101201.84
2022-11-28T18:14:09.233Z,101207.25
2022-11-28T18:16:36.263Z,101202.13
2022-11-28T18:19:04.048Z,101202.13
2022-11-28T18:21:30.940Z,101213.84
2022-11-28T18:23:57.551Z,101209.75
2022-11-28T18:26:26.172Z,101208.06
2022-11-28T18:28:53.753Z,101220.41
2022-11-28T18:31:25.417Z,101219.09
2022-11-28T18:33:57.400Z,101221.59
2022-11-28T18:36:28.567Z,101221.06
2022-11-28T18:38:56.549Z,101220.91
2022-11-28T18:41:23.590Z,101233.47
2022-11-28T18:43:54.862Z,101231.31
2022-11-28T18:46:21.494Z,101218.94
2022-11-28T18:48:48.309Z,101216.63
2022-11-28T18:51:24.954Z,101212.13
2022-11-28T18:53:53.939Z,101212.41
2022-11-28T18:56:21.174Z,101208.56
2022-11-28T18:58:51.820Z,101209.34
2022-11-28T19:01:28.686Z,101213.00
2022-11-28T19:04:01.128Z,101231.50
2022-11-28T19:06:28.065Z,101231.06
2022-11-28T19:08:57.352Z,101232.09
2022-11-28T19:11:24.399Z,101235.06
2022-11-28T19:13:53.356Z,101230.28
2022-11-28T19:16:25.608Z,101235.53
2022-11-28T19:18:52.462Z,101241.38
2022-11-28T19:21:21.899Z,101241.91
2022-11-28T19:23:49.272Z,101241.06
2022-11-28T19:26:21.999Z,101272.22
2022-11-28T19:28:49.617Z,101272.06
2022-11-28T19:31:27.125Z,101258.88
2022-11-28T19:34:01.503Z,101264.47
2022-11-28T19:36:30.402Z,101263.34
2022-11-28T19:38:57.916Z,101258.34
2022-11-28T19:41:27.570Z,101265.09
2022-11-28T19:43:54.328Z,101266.56
2022-11-28T19:46:20.902Z,101272.00
2022-11-28T19:48:47.739Z,101279.91
2022-11-28T19:51:14.330Z,101278.94
2022-11-28T19:53:42.728Z,101281.63
2022-11-28T19:56:14.939Z,101280.94
2022-11-28T19:58:41.896Z,101274.66
2022-11-28T20:01:14.342Z,101297.63
2022-11-28T20:03:41.881Z,101322.16
2022-11-28T20:06:16.327Z,101438.56
2022-11-28T20:08:43.382Z,101369.69
2022-11-28T20:11:14.721Z,101335.56
2022-11-28T20:13:42.054Z,101326.31
2022-11-28T20:16:11.221Z,101328.94
2022-11-28T20:18:39.336Z,101325.13
2022-11-28T20:21:17.720Z,101318.84
2022-11-28T20:23:48.951Z,101327.44
2022-11-28T20:26:17.673Z,101300.53
2022-11-28T20:28:45.472Z,101454.50
2022-11-28T20:31:20.763Z,101364.81
2022-11-28T20:33:49.103Z,101364.00
2022-11-28T20:36:18.431Z,101362.88
2022-11-28T20:38:45.697Z,101348.53
2022-11-28T20:41:14.123Z,101347.56
2022-11-28T20:43:41.454Z,101410.00
2022-11-28T20:46:14.810Z,101732.22
2022-11-28T20:48:42.163Z,101436.34
2022-11-28T20:51:10.611Z,101415.56
2022-11-28T20:53:39.435Z,101396.91
2022-11-28T20:56:08.568Z,101392.94
2022-11-28T20:58:35.152Z,101400.53
2022-11-28T21:01:01.869Z,101401.34
2022-11-28T21:03:28.666Z,101396.75
2022-11-28T21:06:00.651Z,101408.78
2022-11-28T21:08:30.477Z,101403.50
2022-11-28T21:10:57.460Z,101395.09
2022-11-28T21:13:24.191Z,101408.59
2022-11-28T21:15:52.017Z,101400.84
2022-11-28T21:18:18.545Z,101397.16
2022-11-28T21:20:46.585Z,101390.06
2022-11-28T21:23:15.910Z,101389.78
2022-11-28T21:25:43.612Z,101385.56
2022-11-28T21:28:11.103Z,101386.31
2022-11-28T21:30:44.066Z,101386.78
2022-11-28T21:33:11.635Z,101386.28
2022-11-28T21:35:39.270Z,101375.69
2022-11-28T21:38:07.008Z,101375.09
2022-11-28T21:40:33.867Z,101374.03
2022-11-28T21:43:00.516Z,101368.03
2022-11-28T21:45:27.622Z,101373.06
2022-11-28T21:47:54.224Z,101366.06
2022-11-28T21:50:20.769Z,101371.41
2022-11-28T21:52:47.265Z,101373.72
2022-11-28T21:55:13.751Z,101376.06
2022-11-28T21:57:42.270Z,101367.25
2022-11-28T22:00:20.747Z,101367.16
2022-11-28T22:03:32.235Z,101360.94
2022-11-28T22:05:43.340Z,101361.34
2022-11-28T22:08:10.808Z,101374.78
2022-11-28T22:10:37.818Z,101381.19
2022-11-28T22:13:04.358Z,101379.72
2022-11-28T22:15:30.869Z,101370.50
2022-11-28T22:17:57.330Z,101376.03
2022-11-28T22:20:23.878Z,101384.22
2022-11-28T22:22:50.354Z,101378.00
2022-11-28T22:25:17.022Z,101373.75
2022-11-28T22:27:43.630Z,101373.09
2022-11-28T22:30:10.609Z,101381.81
2022-11-28T22:32:37.097Z,101379.03
2022-11-28T22:35:03.818Z,101371.88
2022-11-28T22:37:30.397Z,101376.88
2022-11-28T22:39:56.901Z,101373.97
2022-11-28T22:42:23.417Z,101380.72
2022-11-28T22:44:49.927Z,101384.03
2022-11-28T22:47:16.419Z,101388.59
2022-11-28T22:49:42.934Z,101394.53
2022-11-28T22:52:09.441Z,101384.31
2022-11-28T22:54:35.992Z,101394.28
2022-11-28T22:57:02.560Z,101397.56
2022-11-28T22:59:30.173Z,101402.25
2022-11-28T23:01:56.889Z,101404.63
2022-11-28T23:04:23.525Z,101400.88
2022-11-28T23:06:50.104Z,101400.63
2022-11-28T23:09:16.855Z,101393.72
2022-11-28T23:11:43.566Z,101404.22
2022-11-28T23:14:13.244Z,101401.44
2022-11-28T23:16:41.897Z,101400.63
2022-11-28T23:19:12.488Z,101399.09
2022-11-28T23:21:41.077Z,101404.47
2022-11-28T23:24:11.944Z,101394.97
2022-11-28T23:26:38.510Z,101397.72
2022-11-28T23:29:05.777Z,101397.00
2022-11-28T23:31:34.112Z,101388.03
2022-11-28T23:34:01.283Z,101388.44
2022-11-28T23:36:41.870Z,101387.03
2022-11-28T23:39:22.589Z,101385.41
2022-11-28T23:41:50.087Z,101390.91
2022-11-28T23:44:18.263Z,101389.38
2022-11-28T23:46:45.380Z,101385.38
2022-11-28T23:49:12.646Z,101381.66
2022-11-28T23:51:40.604Z,101396.38
2022-11-28T23:54:08.515Z,101394.56
2022-11-28T23:56:36.513Z,101390.41
2022-11-28T23:59:06.052Z,101381.38
